sensor_id;sensor_type;location;lat;lon;timestamp;temperature;humidity
65046;DHT22;54657;52.022;5.534;2023-03-25T00:00:54;11.20;80.60
65046;DHT22;54657;52.022;5.534;2023-03-25T00:03:27;11.10;80.50
65046;DHT22;54657;52.022;5.534;2023-03-25T00:05:53;11.10;80.40
65046;DHT22;54657;52.022;5.534;2023-03-25T00:08:20;11.10;80.40
65046;DHT22;54657;52.022;5.534;2023-03-25T00:10:51;11.10;80.40
65046;DHT22;54657;52.022;5.534;2023-03-25T00:13:17;11.10;80.30
65046;DHT22;54657;52.022;5.534;2023-03-25T00:15:42;11.20;80.40
65046;DHT22;54657;52.022;5.534;2023-03-25T00:18:10;11.20;80.20
65046;DHT22;54657;52.022;5.534;2023-03-25T00:20:35;11.20;80.30
65046;DHT22;54657;52.022;5.534;2023-03-25T00:23:01;11.20;80.20
65046;DHT22;54657;52.022;5.534;2023-03-25T00:25:26;11.20;80.20
65046;DHT22;54657;52.022;5.534;2023-03-25T00:27:52;11.10;80.00
65046;DHT22;54657;52.022;5.534;2023-03-25T00:30:18;11.20;80.30
65046;DHT22;54657;52.022;5.534;2023-03-25T00:32:45;11.20;80.30
65046;DHT22;54657;52.022;5.534;2023-03-25T00:35:14;11.10;80.00
65046;DHT22;54657;52.022;5.534;2023-03-25T00:37:42;11.10;80.00
65046;DHT22;54657;52.022;5.534;2023-03-25T00:40:08;11.10;80.00
65046;DHT22;54657;52.022;5.534;2023-03-25T00:42:33;11.10;79.90
65046;DHT22;54657;52.022;5.534;2023-03-25T00:44:59;11.10;79.80
65046;DHT22;54657;52.022;5.534;2023-03-25T00:47:25;11.10;79.60
65046;DHT22;54657;52.022;5.534;2023-03-25T00:49:51;11.20;79.80
65046;DHT22;54657;52.022;5.534;2023-03-25T00:52:17;11.10;79.50
65046;DHT22;54657;52.022;5.534;2023-03-25T00:54:42;11.10;79.80
65046;DHT22;54657;52.022;5.534;2023-03-25T00:57:10;11.10;79.60
65046;DHT22;54657;52.022;5.534;2023-03-25T00:59:35;11.10;79.30
65046;DHT22;54657;52.022;5.534;2023-03-25T01:02:01;11.10;79.40
65046;DHT22;54657;52.022;5.534;2023-03-25T01:04:28;11.10;79.20
65046;DHT22;54657;52.022;5.534;2023-03-25T01:06:54;11.10;79.30
65046;DHT22;54657;52.022;5.534;2023-03-25T01:09:20;11.10;79.10
65046;DHT22;54657;52.022;5.534;2023-03-25T01:11:47;11.10;79.20
65046;DHT22;54657;52.022;5.534;2023-03-25T01:14:16;11.10;79.00
65046;DHT22;54657;52.022;5.534;2023-03-25T01:16:42;11.10;78.90
65046;DHT22;54657;52.022;5.534;2023-03-25T01:19:09;11.10;78.60
65046;DHT22;54657;52.022;5.534;2023-03-25T01:21:35;11.10;79.00
65046;DHT22;54657;52.022;5.534;2023-03-25T01:24:02;11.10;78.80
65046;DHT22;54657;52.022;5.534;2023-03-25T01:26:28;11.10;78.80
65046;DHT22;54657;52.022;5.534;2023-03-25T01:28:54;11.10;78.70
65046;DHT22;54657;52.022;5.534;2023-03-25T01:31:19;11.10;78.80
65046;DHT22;54657;52.022;5.534;2023-03-25T01:33:47;11.10;78.70
65046;DHT22;54657;52.022;5.534;2023-03-25T01:36:13;11.10;78.80
65046;DHT22;54657;52.022;5.534;2023-03-25T01:38:39;11.10;78.70
65046;DHT22;54657;52.022;5.534;2023-03-25T01:41:05;11.10;78.80
65046;DHT22;54657;52.022;5.534;2023-03-25T01:43:32;11.10;79.50
65046;DHT22;54657;52.022;5.534;2023-03-25T01:45:58;11.10;79.30
65046;DHT22;54657;52.022;5.534;2023-03-25T01:51:01;11.10;79.20
65046;DHT22;54657;52.022;5.534;2023-03-25T01:53:29;11.00;79.20
65046;DHT22;54657;52.022;5.534;2023-03-25T01:55:55;11.00;79.30
65046;DHT22;54657;52.022;5.534;2023-03-25T01:58:23;11.00;79.40
65046;DHT22;54657;52.022;5.534;2023-03-25T02:00:49;11.00;79.40
65046;DHT22;54657;52.022;5.534;2023-03-25T02:03:16;11.00;79.50
65046;DHT22;54657;52.022;5.534;2023-03-25T02:06:05;10.90;79.40
65046;DHT22;54657;52.022;5.534;2023-03-25T02:08:35;10.90;79.50
65046;DHT22;54657;52.022;5.534;2023-03-25T02:11:04;10.90;80.40
65046;DHT22;54657;52.022;5.534;2023-03-25T02:13:30;10.90;80.80
65046;DHT22;54657;52.022;5.534;2023-03-25T02:27:16;10.50;84.40
65046;DHT22;54657;52.022;5.534;2023-03-25T02:33:16;10.40;88.00
65046;DHT22;54657;52.022;5.534;2023-03-25T02:38:48;10.30;88.40
65046;DHT22;54657;52.022;5.534;2023-03-25T02:41:26;10.30;86.10
65046;DHT22;54657;52.022;5.534;2023-03-25T02:44:01;10.30;86.50
65046;DHT22;54657;52.022;5.534;2023-03-25T02:46:29;10.30;86.00
65046;DHT22;54657;52.022;5.534;2023-03-25T02:49:07;10.20;86.60
65046;DHT22;54657;52.022;5.534;2023-03-25T02:51:37;10.30;87.40
65046;DHT22;54657;52.022;5.534;2023-03-25T02:54:08;10.20;87.20
65046;DHT22;54657;52.022;5.534;2023-03-25T02:56:36;10.20;86.90
65046;DHT22;54657;52.022;5.534;2023-03-25T02:59:03;10.20;86.60
65046;DHT22;54657;52.022;5.534;2023-03-25T03:01:29;10.20;86.60
65046;DHT22;54657;52.022;5.534;2023-03-25T03:03:55;10.30;86.60
65046;DHT22;54657;52.022;5.534;2023-03-25T03:06:22;10.20;86.60
65046;DHT22;54657;52.022;5.534;2023-03-25T03:19:39;10.20;87.80
65046;DHT22;54657;52.022;5.534;2023-03-25T03:25:26;10.20;89.20
65046;DHT22;54657;52.022;5.534;2023-03-25T03:28:22;10.20;87.90
65046;DHT22;54657;52.022;5.534;2023-03-25T03:34:04;10.20;90.10
65046;DHT22;54657;52.022;5.534;2023-03-25T03:36:38;10.20;91.00
65046;DHT22;54657;52.022;5.534;2023-03-25T03:39:17;10.20;88.20
65046;DHT22;54657;52.022;5.534;2023-03-25T03:41:48;10.20;88.30
65046;DHT22;54657;52.022;5.534;2023-03-25T03:44:19;10.20;88.70
65046;DHT22;54657;52.022;5.534;2023-03-25T03:47:00;10.20;88.40
65046;DHT22;54657;52.022;5.534;2023-03-25T03:49:31;10.20;89.20
65046;DHT22;54657;52.022;5.534;2023-03-25T03:54:59;10.10;88.60
65046;DHT22;54657;52.022;5.534;2023-03-25T03:57:34;10.10;89.60
65046;DHT22;54657;52.022;5.534;2023-03-25T04:00:11;10.10;88.00
65046;DHT22;54657;52.022;5.534;2023-03-25T04:02:41;10.10;88.80
65046;DHT22;54657;52.022;5.534;2023-03-25T04:05:11;10.10;88.50
65046;DHT22;54657;52.022;5.534;2023-03-25T04:08:26;10.20;88.20
65046;DHT22;54657;52.022;5.534;2023-03-25T04:13:07;10.20;88.20
65046;DHT22;54657;52.022;5.534;2023-03-25T04:15:34;10.20;89.10
65046;DHT22;54657;52.022;5.534;2023-03-25T04:18:00;10.20;88.10
65046;DHT22;54657;52.022;5.534;2023-03-25T04:20:29;10.20;88.00
65046;DHT22;54657;52.022;5.534;2023-03-25T04:22:58;10.10;88.80
65046;DHT22;54657;52.022;5.534;2023-03-25T04:25:24;10.10;88.60
65046;DHT22;54657;52.022;5.534;2023-03-25T04:27:50;10.10;89.00
65046;DHT22;54657;52.022;5.534;2023-03-25T04:30:18;10.10;89.10
65046;DHT22;54657;52.022;5.534;2023-03-25T04:32:45;10.10;89.00
65046;DHT22;54657;52.022;5.534;2023-03-25T04:35:12;10.10;88.70
65046;DHT22;54657;52.022;5.534;2023-03-25T04:37:38;10.20;88.20
65046;DHT22;54657;52.022;5.534;2023-03-25T04:40:04;10.10;88.80
65046;DHT22;54657;52.022;5.534;2023-03-25T04:42:31;10.10;89.30
65046;DHT22;54657;52.022;5.534;2023-03-25T04:45:04;10.00;90.00
65046;DHT22;54657;52.022;5.534;2023-03-25T04:47:30;10.00;89.20
65046;DHT22;54657;52.022;5.534;2023-03-25T04:49:56;10.00;90.20
65046;DHT22;54657;52.022;5.534;2023-03-25T04:52:22;10.00;90.20
65046;DHT22;54657;52.022;5.534;2023-03-25T04:54:47;10.00;90.20
65046;DHT22;54657;52.022;5.534;2023-03-25T04:57:13;10.00;89.60
65046;DHT22;54657;52.022;5.534;2023-03-25T04:59:39;10.00;90.00
65046;DHT22;54657;52.022;5.534;2023-03-25T05:02:05;9.90;89.80
65046;DHT22;54657;52.022;5.534;2023-03-25T05:04:32;10.00;89.50
65046;DHT22;54657;52.022;5.534;2023-03-25T05:06:58;10.00;89.60
65046;DHT22;54657;52.022;5.534;2023-03-25T05:09:23;10.00;89.50
65046;DHT22;54657;52.022;5.534;2023-03-25T05:11:51;10.00;89.50
65046;DHT22;54657;52.022;5.534;2023-03-25T05:14:18;10.00;89.90
65046;DHT22;54657;52.022;5.534;2023-03-25T05:16:45;10.00;89.70
65046;DHT22;54657;52.022;5.534;2023-03-25T05:19:11;9.90;89.70
65046;DHT22;54657;52.022;5.534;2023-03-25T05:21:38;9.90;89.20
65046;DHT22;54657;52.022;5.534;2023-03-25T05:24:06;9.90;89.50
65046;DHT22;54657;52.022;5.534;2023-03-25T05:26:33;9.80;89.20
65046;DHT22;54657;52.022;5.534;2023-03-25T05:29:06;9.80;89.80
65046;DHT22;54657;52.022;5.534;2023-03-25T05:31:33;9.80;90.00
65046;DHT22;54657;52.022;5.534;2023-03-25T05:33:59;9.70;89.80
65046;DHT22;54657;52.022;5.534;2023-03-25T05:36:25;9.80;89.40
65046;DHT22;54657;52.022;5.534;2023-03-25T05:38:54;9.70;89.80
65046;DHT22;54657;52.022;5.534;2023-03-25T05:41:21;9.70;89.80
65046;DHT22;54657;52.022;5.534;2023-03-25T05:43:47;9.80;89.60
65046;DHT22;54657;52.022;5.534;2023-03-25T05:46:16;9.70;89.60
65046;DHT22;54657;52.022;5.534;2023-03-25T05:48:43;9.70;90.00
65046;DHT22;54657;52.022;5.534;2023-03-25T05:51:14;9.70;90.10
65046;DHT22;54657;52.022;5.534;2023-03-25T05:53:44;9.70;90.10
65046;DHT22;54657;52.022;5.534;2023-03-25T05:56:14;9.70;90.00
65046;DHT22;54657;52.022;5.534;2023-03-25T05:58:42;9.60;90.10
65046;DHT22;54657;52.022;5.534;2023-03-25T06:01:09;9.70;90.30
65046;DHT22;54657;52.022;5.534;2023-03-25T06:03:35;9.70;90.40
65046;DHT22;54657;52.022;5.534;2023-03-25T06:06:00;9.70;90.20
65046;DHT22;54657;52.022;5.534;2023-03-25T06:08:29;9.70;90.20
65046;DHT22;54657;52.022;5.534;2023-03-25T06:10:56;9.80;90.20
65046;DHT22;54657;52.022;5.534;2023-03-25T06:13:26;9.80;90.30
65046;DHT22;54657;52.022;5.534;2023-03-25T06:15:52;9.70;90.40
65046;DHT22;54657;52.022;5.534;2023-03-25T06:18:23;9.70;90.10
65046;DHT22;54657;52.022;5.534;2023-03-25T06:20:50;9.80;90.40
65046;DHT22;54657;52.022;5.534;2023-03-25T06:23:18;9.80;90.30
65046;DHT22;54657;52.022;5.534;2023-03-25T06:25:48;9.90;90.10
65046;DHT22;54657;52.022;5.534;2023-03-25T06:28:13;9.90;90.00
65046;DHT22;54657;52.022;5.534;2023-03-25T06:30:45;9.90;89.50
65046;DHT22;54657;52.022;5.534;2023-03-25T06:33:12;9.90;89.90
65046;DHT22;54657;52.022;5.534;2023-03-25T06:35:39;9.90;90.00
65046;DHT22;54657;52.022;5.534;2023-03-25T06:38:05;10.00;90.00
65046;DHT22;54657;52.022;5.534;2023-03-25T06:40:31;9.90;90.20
65046;DHT22;54657;52.022;5.534;2023-03-25T06:42:57;9.90;90.20
65046;DHT22;54657;52.022;5.534;2023-03-25T06:45:22;10.00;89.80
65046;DHT22;54657;52.022;5.534;2023-03-25T06:47:48;10.00;90.00
65046;DHT22;54657;52.022;5.534;2023-03-25T06:50:13;9.90;90.10
65046;DHT22;54657;52.022;5.534;2023-03-25T06:52:39;10.00;89.80
65046;DHT22;54657;52.022;5.534;2023-03-25T06:55:05;10.00;89.70
65046;DHT22;54657;52.022;5.534;2023-03-25T06:57:30;10.00;89.50
65046;DHT22;54657;52.022;5.534;2023-03-25T06:59:56;10.10;89.40
65046;DHT22;54657;52.022;5.534;2023-03-25T07:02:22;10.10;89.60
65046;DHT22;54657;52.022;5.534;2023-03-25T07:04:47;10.10;89.80
65046;DHT22;54657;52.022;5.534;2023-03-25T07:07:13;10.00;89.90
65046;DHT22;54657;52.022;5.534;2023-03-25T07:09:38;10.00;89.60
65046;DHT22;54657;52.022;5.534;2023-03-25T07:12:04;10.00;89.90
65046;DHT22;54657;52.022;5.534;2023-03-25T07:14:30;10.00;90.20
65046;DHT22;54657;52.022;5.534;2023-03-25T07:16:55;10.00;90.10
65046;DHT22;54657;52.022;5.534;2023-03-25T07:19:21;10.00;90.10
65046;DHT22;54657;52.022;5.534;2023-03-25T07:21:47;10.00;90.20
65046;DHT22;54657;52.022;5.534;2023-03-25T07:24:12;10.00;90.30
65046;DHT22;54657;52.022;5.534;2023-03-25T07:26:38;10.00;90.30
65046;DHT22;54657;52.022;5.534;2023-03-25T07:29:03;10.10;90.20
65046;DHT22;54657;52.022;5.534;2023-03-25T07:31:30;10.10;90.30
65046;DHT22;54657;52.022;5.534;2023-03-25T07:33:56;10.10;90.40
65046;DHT22;54657;52.022;5.534;2023-03-25T07:36:24;10.00;90.80
65046;DHT22;54657;52.022;5.534;2023-03-25T07:38:51;10.00;90.60
65046;DHT22;54657;52.022;5.534;2023-03-25T07:41:17;10.00;90.60
65046;DHT22;54657;52.022;5.534;2023-03-25T07:43:43;10.00;90.40
65046;DHT22;54657;52.022;5.534;2023-03-25T07:46:10;10.00;90.60
65046;DHT22;54657;52.022;5.534;2023-03-25T07:48:35;10.00;90.40
65046;DHT22;54657;52.022;5.534;2023-03-25T07:51:01;10.10;90.80
65046;DHT22;54657;52.022;5.534;2023-03-25T07:53:27;10.10;90.70
65046;DHT22;54657;52.022;5.534;2023-03-25T07:55:52;10.10;90.80
65046;DHT22;54657;52.022;5.534;2023-03-25T07:58:18;10.20;91.00
65046;DHT22;54657;52.022;5.534;2023-03-25T08:00:44;10.30;90.90
65046;DHT22;54657;52.022;5.534;2023-03-25T08:03:11;10.30;90.80
65046;DHT22;54657;52.022;5.534;2023-03-25T08:05:37;10.30;90.50
65046;DHT22;54657;52.022;5.534;2023-03-25T08:08:04;10.40;90.20
65046;DHT22;54657;52.022;5.534;2023-03-25T08:10:30;10.40;90.30
65046;DHT22;54657;52.022;5.534;2023-03-25T08:12:56;10.40;90.40
65046;DHT22;54657;52.022;5.534;2023-03-25T08:15:21;10.40;90.30
65046;DHT22;54657;52.022;5.534;2023-03-25T08:17:49;10.40;90.20
65046;DHT22;54657;52.022;5.534;2023-03-25T08:20:16;10.40;90.20
65046;DHT22;54657;52.022;5.534;2023-03-25T08:22:46;10.50;90.50
65046;DHT22;54657;52.022;5.534;2023-03-25T08:25:12;10.50;90.10
65046;DHT22;54657;52.022;5.534;2023-03-25T08:27:38;10.50;90.20
65046;DHT22;54657;52.022;5.534;2023-03-25T08:30:05;10.50;90.20
65046;DHT22;54657;52.022;5.534;2023-03-25T08:32:35;10.50;90.00
65046;DHT22;54657;52.022;5.534;2023-03-25T08:35:00;10.60;90.20
65046;DHT22;54657;52.022;5.534;2023-03-25T08:37:29;10.60;90.00
65046;DHT22;54657;52.022;5.534;2023-03-25T08:40:03;10.60;90.00
65046;DHT22;54657;52.022;5.534;2023-03-25T08:42:33;10.60;90.10
65046;DHT22;54657;52.022;5.534;2023-03-25T08:44:59;10.60;90.10
65046;DHT22;54657;52.022;5.534;2023-03-25T08:47:24;10.60;90.10
65046;DHT22;54657;52.022;5.534;2023-03-25T08:49:50;10.70;90.20
65046;DHT22;54657;52.022;5.534;2023-03-25T08:52:16;10.60;90.30
65046;DHT22;54657;52.022;5.534;2023-03-25T08:54:41;10.60;90.40
65046;DHT22;54657;52.022;5.534;2023-03-25T08:57:07;10.60;90.60
65046;DHT22;54657;52.022;5.534;2023-03-25T08:59:33;10.60;90.50
65046;DHT22;54657;52.022;5.534;2023-03-25T09:01:58;10.50;90.60
65046;DHT22;54657;52.022;5.534;2023-03-25T09:04:24;10.50;90.70
65046;DHT22;54657;52.022;5.534;2023-03-25T09:06:50;10.40;90.70
65046;DHT22;54657;52.022;5.534;2023-03-25T09:09:17;10.40;90.70
65046;DHT22;54657;52.022;5.534;2023-03-25T09:11:43;10.50;90.80
65046;DHT22;54657;52.022;5.534;2023-03-25T09:14:08;10.50;91.00
65046;DHT22;54657;52.022;5.534;2023-03-25T09:16:34;10.50;91.00
65046;DHT22;54657;52.022;5.534;2023-03-25T09:19:01;10.60;91.20
65046;DHT22;54657;52.022;5.534;2023-03-25T09:21:27;10.80;90.80
65046;DHT22;54657;52.022;5.534;2023-03-25T09:23:52;10.90;91.00
65046;DHT22;54657;52.022;5.534;2023-03-25T09:26:18;10.90;91.00
65046;DHT22;54657;52.022;5.534;2023-03-25T09:28:44;11.00;90.70
65046;DHT22;54657;52.022;5.534;2023-03-25T09:31:09;10.90;90.60
65046;DHT22;54657;52.022;5.534;2023-03-25T09:33:36;10.90;91.10
65046;DHT22;54657;52.022;5.534;2023-03-25T09:36:02;10.90;91.10
65046;DHT22;54657;52.022;5.534;2023-03-25T09:38:28;11.00;90.90
65046;DHT22;54657;52.022;5.534;2023-03-25T09:40:54;10.90;90.80
65046;DHT22;54657;52.022;5.534;2023-03-25T09:43:28;10.90;91.00
65046;DHT22;54657;52.022;5.534;2023-03-25T09:45:58;10.90;90.90
65046;DHT22;54657;52.022;5.534;2023-03-25T09:58:40;10.60;91.90
65046;DHT22;54657;52.022;5.534;2023-03-25T10:15:25;11.00;91.00
65046;DHT22;54657;52.022;5.534;2023-03-25T10:23:20;11.10;90.90
65046;DHT22;54657;52.022;5.534;2023-03-25T10:25:50;11.10;91.10
65046;DHT22;54657;52.022;5.534;2023-03-25T10:28:27;11.10;91.30
65046;DHT22;54657;52.022;5.534;2023-03-25T10:30:53;11.20;91.00
65046;DHT22;54657;52.022;5.534;2023-03-25T10:33:22;11.10;90.60
65046;DHT22;54657;52.022;5.534;2023-03-25T10:35:53;11.20;90.50
65046;DHT22;54657;52.022;5.534;2023-03-25T10:38:22;11.20;90.40
65046;DHT22;54657;52.022;5.534;2023-03-25T10:43:40;11.30;90.90
65046;DHT22;54657;52.022;5.534;2023-03-25T10:46:15;11.30;90.20
65046;DHT22;54657;52.022;5.534;2023-03-25T10:48:43;11.30;90.00
65046;DHT22;54657;52.022;5.534;2023-03-25T10:51:13;11.30;90.10
65046;DHT22;54657;52.022;5.534;2023-03-25T10:53:40;11.30;90.00
65046;DHT22;54657;52.022;5.534;2023-03-25T10:56:15;11.30;89.90
65046;DHT22;54657;52.022;5.534;2023-03-25T10:58:44;11.30;89.90
65046;DHT22;54657;52.022;5.534;2023-03-25T11:01:13;11.30;89.80
65046;DHT22;54657;52.022;5.534;2023-03-25T11:03:40;11.30;90.10
65046;DHT22;54657;52.022;5.534;2023-03-25T11:06:30;11.30;90.00
65046;DHT22;54657;52.022;5.534;2023-03-25T11:09:12;11.30;89.70
65046;DHT22;54657;52.022;5.534;2023-03-25T11:11:40;11.40;89.00
65046;DHT22;54657;52.022;5.534;2023-03-25T11:14:06;11.30;89.20
65046;DHT22;54657;52.022;5.534;2023-03-25T11:16:35;11.30;89.40
65046;DHT22;54657;52.022;5.534;2023-03-25T11:19:04;11.40;89.10
65046;DHT22;54657;52.022;5.534;2023-03-25T11:21:32;11.30;88.80
65046;DHT22;54657;52.022;5.534;2023-03-25T11:24:00;11.40;88.60
65046;DHT22;54657;52.022;5.534;2023-03-25T11:26:37;11.50;88.70
65046;DHT22;54657;52.022;5.534;2023-03-25T11:29:07;11.60;88.70
65046;DHT22;54657;52.022;5.534;2023-03-25T11:31:36;11.60;88.60
65046;DHT22;54657;52.022;5.534;2023-03-25T11:36:53;11.80;86.10
65046;DHT22;54657;52.022;5.534;2023-03-25T11:41:48;12.00;85.80
65046;DHT22;54657;52.022;5.534;2023-03-25T11:46:51;12.30;85.10
65046;DHT22;54657;52.022;5.534;2023-03-25T11:49:20;12.30;85.60
65046;DHT22;54657;52.022;5.534;2023-03-25T11:51:48;12.40;84.90
65046;DHT22;54657;52.022;5.534;2023-03-25T11:54:15;12.30;83.90
65046;DHT22;54657;52.022;5.534;2023-03-25T11:56:43;12.30;84.00
65046;DHT22;54657;52.022;5.534;2023-03-25T12:01:49;12.40;82.50
65046;DHT22;54657;52.022;5.534;2023-03-25T12:04:23;12.40;84.00
65046;DHT22;54657;52.022;5.534;2023-03-25T12:07:05;12.40;84.30
65046;DHT22;54657;52.022;5.534;2023-03-25T12:09:33;12.40;83.60
65046;DHT22;54657;52.022;5.534;2023-03-25T12:12:36;12.50;83.80
65046;DHT22;54657;52.022;5.534;2023-03-25T12:15:15;12.60;82.30
65046;DHT22;54657;52.022;5.534;2023-03-25T12:18:06;12.70;83.60
65046;DHT22;54657;52.022;5.534;2023-03-25T12:23:23;12.90;82.90
65046;DHT22;54657;52.022;5.534;2023-03-25T12:31:53;13.20;82.50
65046;DHT22;54657;52.022;5.534;2023-03-25T12:34:31;13.30;81.00
65046;DHT22;54657;52.022;5.534;2023-03-25T12:56:56;12.90;81.50
65046;DHT22;54657;52.022;5.534;2023-03-25T12:59:42;12.90;81.60
65046;DHT22;54657;52.022;5.534;2023-03-25T13:02:35;12.90;81.30
65046;DHT22;54657;52.022;5.534;2023-03-25T13:05:26;12.90;80.00
65046;DHT22;54657;52.022;5.534;2023-03-25T13:08:00;12.90;81.30
65046;DHT22;54657;52.022;5.534;2023-03-25T13:10:31;12.90;81.70
65046;DHT22;54657;52.022;5.534;2023-03-25T13:13:00;12.90;80.90
65046;DHT22;54657;52.022;5.534;2023-03-25T13:15:43;13.00;81.60
65046;DHT22;54657;52.022;5.534;2023-03-25T13:20:47;13.10;80.30
65046;DHT22;54657;52.022;5.534;2023-03-25T13:23:18;13.20;80.80
65046;DHT22;54657;52.022;5.534;2023-03-25T13:25:53;13.20;80.30
65046;DHT22;54657;52.022;5.534;2023-03-25T13:28:25;13.20;78.60
65046;DHT22;54657;52.022;5.534;2023-03-25T13:30:52;13.20;80.20
65046;DHT22;54657;52.022;5.534;2023-03-25T13:33:27;13.30;80.40
65046;DHT22;54657;52.022;5.534;2023-03-25T13:38:33;13.30;78.20
65046;DHT22;54657;52.022;5.534;2023-03-25T13:46:43;13.30;78.60
65046;DHT22;54657;52.022;5.534;2023-03-25T13:51:41;13.40;78.00
65046;DHT22;54657;52.022;5.534;2023-03-25T13:54:36;13.50;78.20
65046;DHT22;54657;52.022;5.534;2023-03-25T14:08:48;13.60;76.60
65046;DHT22;54657;52.022;5.534;2023-03-25T14:14:15;13.40;74.80
65046;DHT22;54657;52.022;5.534;2023-03-25T14:16:47;13.30;77.20
65046;DHT22;54657;52.022;5.534;2023-03-25T14:19:16;13.40;77.20
65046;DHT22;54657;52.022;5.534;2023-03-25T14:21:50;13.30;77.40
65046;DHT22;54657;52.022;5.534;2023-03-25T14:24:30;13.20;76.90
65046;DHT22;54657;52.022;5.534;2023-03-25T14:29:54;12.90;78.30
65046;DHT22;54657;52.022;5.534;2023-03-25T14:34:47;12.50;80.70
65046;DHT22;54657;52.022;5.534;2023-03-25T14:37:17;12.40;81.90
65046;DHT22;54657;52.022;5.534;2023-03-25T14:39:53;12.40;81.90
65046;DHT22;54657;52.022;5.534;2023-03-25T14:45:39;12.50;82.10
65046;DHT22;54657;52.022;5.534;2023-03-25T14:48:31;12.60;81.90
65046;DHT22;54657;52.022;5.534;2023-03-25T14:59:27;12.80;80.60
65046;DHT22;54657;52.022;5.534;2023-03-25T15:01:57;12.90;80.50
65046;DHT22;54657;52.022;5.534;2023-03-25T15:04:33;13.00;79.00
65046;DHT22;54657;52.022;5.534;2023-03-25T15:07:02;13.10;79.00
65046;DHT22;54657;52.022;5.534;2023-03-25T15:09:29;13.10;78.90
65046;DHT22;54657;52.022;5.534;2023-03-25T15:12:00;13.10;77.50
65046;DHT22;54657;52.022;5.534;2023-03-25T15:14:35;13.20;77.40
65046;DHT22;54657;52.022;5.534;2023-03-25T15:17:08;13.20;76.30
65046;DHT22;54657;52.022;5.534;2023-03-25T15:22:33;13.20;72.60
65046;DHT22;54657;52.022;5.534;2023-03-25T15:25:00;13.20;76.50
65046;DHT22;54657;52.022;5.534;2023-03-25T15:27:36;13.20;76.60
65046;DHT22;54657;52.022;5.534;2023-03-25T15:30:12;13.30;76.40
65046;DHT22;54657;52.022;5.534;2023-03-25T15:33:10;13.20;75.20
65046;DHT22;54657;52.022;5.534;2023-03-25T15:44:06;13.20;74.30
65046;DHT22;54657;52.022;5.534;2023-03-25T15:55:25;13.20;74.40
65046;DHT22;54657;52.022;5.534;2023-03-25T15:58:05;13.20;74.40
65046;DHT22;54657;52.022;5.534;2023-03-25T16:00:41;13.20;74.30
65046;DHT22;54657;52.022;5.534;2023-03-25T16:03:35;13.00;73.90
65046;DHT22;54657;52.022;5.534;2023-03-25T16:06:03;12.30;72.10
65046;DHT22;54657;52.022;5.534;2023-03-25T16:08:34;11.80;76.60
65046;DHT22;54657;52.022;5.534;2023-03-25T16:13:40;11.40;79.30
65046;DHT22;54657;52.022;5.534;2023-03-25T16:16:07;11.30;80.50
65046;DHT22;54657;52.022;5.534;2023-03-25T16:18:34;11.30;80.30
65046;DHT22;54657;52.022;5.534;2023-03-25T16:21:01;11.40;80.20
65046;DHT22;54657;52.022;5.534;2023-03-25T16:23:29;11.50;79.80
65046;DHT22;54657;52.022;5.534;2023-03-25T16:25:55;11.70;79.90
65046;DHT22;54657;52.022;5.534;2023-03-25T16:28:39;11.80;78.60
65046;DHT22;54657;52.022;5.534;2023-03-25T16:31:26;11.90;77.50
65046;DHT22;54657;52.022;5.534;2023-03-25T16:33:57;12.00;77.90
65046;DHT22;54657;52.022;5.534;2023-03-25T16:36:24;12.10;77.50
65046;DHT22;54657;52.022;5.534;2023-03-25T16:38:50;12.20;77.50
65046;DHT22;54657;52.022;5.534;2023-03-25T16:41:15;12.30;77.20
65046;DHT22;54657;52.022;5.534;2023-03-25T16:43:41;12.40;76.50
65046;DHT22;54657;52.022;5.534;2023-03-25T16:46:09;12.40;76.50
65046;DHT22;54657;52.022;5.534;2023-03-25T16:48:37;12.40;76.40
65046;DHT22;54657;52.022;5.534;2023-03-25T16:51:27;12.50;76.60
65046;DHT22;54657;52.022;5.534;2023-03-25T16:53:55;12.50;75.90
65046;DHT22;54657;52.022;5.534;2023-03-25T16:56:28;12.50;76.50
65046;DHT22;54657;52.022;5.534;2023-03-25T16:59:45;12.40;76.30
65046;DHT22;54657;52.022;5.534;2023-03-25T17:01:55;12.20;76.70
65046;DHT22;54657;52.022;5.534;2023-03-25T17:07:05;11.70;77.90
65046;DHT22;54657;52.022;5.534;2023-03-25T17:09:34;11.60;79.00
65046;DHT22;54657;52.022;5.534;2023-03-25T17:12:16;11.60;79.40
65046;DHT22;54657;52.022;5.534;2023-03-25T17:14:44;11.50;79.00
65046;DHT22;54657;52.022;5.534;2023-03-25T17:20:00;11.30;81.40
65046;DHT22;54657;52.022;5.534;2023-03-25T17:22:35;11.20;82.20
65046;DHT22;54657;52.022;5.534;2023-03-25T17:25:14;11.10;82.90
65046;DHT22;54657;52.022;5.534;2023-03-25T17:27:42;10.90;84.60
65046;DHT22;54657;52.022;5.534;2023-03-25T17:30:19;10.90;84.20
65046;DHT22;54657;52.022;5.534;2023-03-25T17:32:46;10.80;84.40
65046;DHT22;54657;52.022;5.534;2023-03-25T17:37:46;10.80;84.80
65046;DHT22;54657;52.022;5.534;2023-03-25T17:40:20;10.80;84.90
65046;DHT22;54657;52.022;5.534;2023-03-25T17:42:46;10.80;85.20
65046;DHT22;54657;52.022;5.534;2023-03-25T17:45:13;10.80;84.80
65046;DHT22;54657;52.022;5.534;2023-03-25T17:47:40;10.90;85.20
65046;DHT22;54657;52.022;5.534;2023-03-25T17:50:22;10.80;85.00
65046;DHT22;54657;52.022;5.534;2023-03-25T17:52:50;10.80;85.40
65046;DHT22;54657;52.022;5.534;2023-03-25T17:55:15;10.90;85.20
65046;DHT22;54657;52.022;5.534;2023-03-25T17:57:44;11.00;84.90
65046;DHT22;54657;52.022;5.534;2023-03-25T18:00:14;11.00;84.90
65046;DHT22;54657;52.022;5.534;2023-03-25T18:02:43;10.90;85.30
65046;DHT22;54657;52.022;5.534;2023-03-25T18:05:09;10.90;85.50
65046;DHT22;54657;52.022;5.534;2023-03-25T18:07:36;10.90;86.00
65046;DHT22;54657;52.022;5.534;2023-03-25T18:10:04;10.90;85.90
65046;DHT22;54657;52.022;5.534;2023-03-25T18:12:31;10.90;86.00
65046;DHT22;54657;52.022;5.534;2023-03-25T18:14:56;10.90;86.00
65046;DHT22;54657;52.022;5.534;2023-03-25T18:17:22;10.90;86.20
65046;DHT22;54657;52.022;5.534;2023-03-25T18:19:47;10.90;86.10
65046;DHT22;54657;52.022;5.534;2023-03-25T18:22:13;10.80;86.10
65046;DHT22;54657;52.022;5.534;2023-03-25T18:24:38;10.80;86.20
65046;DHT22;54657;52.022;5.534;2023-03-25T18:27:04;10.80;86.20
65046;DHT22;54657;52.022;5.534;2023-03-25T18:29:30;10.90;85.90
65046;DHT22;54657;52.022;5.534;2023-03-25T18:31:57;10.90;86.00
65046;DHT22;54657;52.022;5.534;2023-03-25T18:34:23;10.90;86.10
65046;DHT22;54657;52.022;5.534;2023-03-25T18:36:51;10.90;86.40
65046;DHT22;54657;52.022;5.534;2023-03-25T18:39:21;10.90;86.40
65046;DHT22;54657;52.022;5.534;2023-03-25T18:41:47;10.90;87.00
65046;DHT22;54657;52.022;5.534;2023-03-25T18:44:13;10.80;86.50
65046;DHT22;54657;52.022;5.534;2023-03-25T18:46:39;10.70;86.80
65046;DHT22;54657;52.022;5.534;2023-03-25T18:49:14;10.60;86.60
65046;DHT22;54657;52.022;5.534;2023-03-25T18:51:40;10.50;86.70
65046;DHT22;54657;52.022;5.534;2023-03-25T18:54:06;10.50;86.70
65046;DHT22;54657;52.022;5.534;2023-03-25T19:00:34;10.50;87.20